createdAt,value
2022-08-28T00:02:02.713Z,16.55
2022-08-28T00:04:30.201Z,16.48
2022-08-28T00:06:57.822Z,16.33
2022-08-28T00:09:25.434Z,17.38
2022-08-28T00:11:52.981Z,18.65
2022-08-28T00:14:21.373Z,19.58
2022-08-28T00:16:50.027Z,18.60
2022-08-28T00:19:18.830Z,19.65
2022-08-28T00:24:14.261Z,17.27
2022-08-28T00:27:00.271Z,16.63
2022-08-28T00:29:28.463Z,18.35
2022-08-28T00:31:56.032Z,17.75
2022-08-28T00:34:28.506Z,15.88
2022-08-28T00:37:00.982Z,15.45
2022-08-28T00:39:28.400Z,16.63
2022-08-28T00:41:57.950Z,16.45
2022-08-28T00:44:28.337Z,17.58
2022-08-28T00:46:58.628Z,15.80
2022-08-28T00:49:33.369Z,13.25
2022-08-28T00:52:08.289Z,13.15
2022-08-28T00:54:59.511Z,13.02
2022-08-28T00:57:41.671Z,13.23
2022-08-28T01:00:15.863Z,12.20
2022-08-28T01:02:43.479Z,12.38
2022-08-28T01:05:12.886Z,12.07
2022-08-28T01:07:40.430Z,14.13
2022-08-28T01:10:11.464Z,15.52
2022-08-28T01:12:39.398Z,14.32
2022-08-28T01:15:11.811Z,14.47
2022-08-28T01:17:48.525Z,14.55
2022-08-28T01:20:22.511Z,13.20
2022-08-28T01:23:33.842Z,15.15
2022-08-28T01:26:01.101Z,13.50
2022-08-28T01:28:28.582Z,14.27
2022-08-28T01:30:58.403Z,14.15
2022-08-28T01:33:28.295Z,15.05
2022-08-28T01:35:55.747Z,14.45
2022-08-28T01:38:26.902Z,14.48
2022-08-28T01:40:56.849Z,16.58
2022-08-28T01:43:26.232Z,17.52
2022-08-28T01:46:00.350Z,15.93
2022-08-28T01:48:31.008Z,19.88
2022-08-28T01:50:58.537Z,15.93
2022-08-28T01:53:32.685Z,17.80
2022-08-28T01:56:04.816Z,18.42
2022-08-28T01:58:37.451Z,15.80
2022-08-28T02:01:18.328Z,19.63
2022-08-28T02:03:46.147Z,28.35
2022-08-28T02:06:15.373Z,21.00
2022-08-28T02:08:42.665Z,21.52
2022-08-28T02:11:11.604Z,20.27
2022-08-28T02:13:39.971Z,17.98
2022-08-28T02:16:09.906Z,18.95
2022-08-28T02:18:38.511Z,26.25
2022-08-28T02:21:07.430Z,26.40
2022-08-28T02:26:02.704Z,19.90
2022-08-28T02:28:30.361Z,22.35
2022-08-28T02:30:58.003Z,23.88
2022-08-28T02:33:25.655Z,25.10
2022-08-28T02:35:52.862Z,24.92
2022-08-28T02:38:20.071Z,21.77
2022-08-28T02:40:47.473Z,17.23
2022-08-28T02:43:14.687Z,15.18
2022-08-28T02:45:41.839Z,16.33
2022-08-28T02:48:17.143Z,15.27
2022-08-28T02:50:45.876Z,14.32
2022-08-28T02:53:13.773Z,14.30
2022-08-28T02:55:40.926Z,14.23
2022-08-28T02:58:08.923Z,19.65
2022-08-28T03:00:36.056Z,21.70
2022-08-28T03:03:03.256Z,32.08
2022-08-28T03:05:30.443Z,31.60
2022-08-28T03:07:57.554Z,39.15
2022-08-28T03:10:24.700Z,32.38
2022-08-28T03:12:52.798Z,29.75
2022-08-28T03:15:20.221Z,29.47
2022-08-28T03:17:48.098Z,22.25
2022-08-28T03:20:16.024Z,19.85
2022-08-28T03:23:01.712Z,22.20
2022-08-28T03:25:29.355Z,22.15
2022-08-28T03:27:56.477Z,23.85
2022-08-28T03:30:24.295Z,23.77
2022-08-28T03:32:51.520Z,21.85
2022-08-28T03:35:19.703Z,20.73
2022-08-28T03:37:46.884Z,18.67
2022-08-28T03:40:14.499Z,18.50
2022-08-28T03:42:41.609Z,15.10
2022-08-28T03:45:11.108Z,12.15
2022-08-28T03:47:41.122Z,14.93
2022-08-28T03:50:12.131Z,11.68
2022-08-28T03:52:40.604Z,10.98
2022-08-28T03:55:11.562Z,10.90
2022-08-28T03:57:39.271Z,10.88
2022-08-28T04:00:11.200Z,8.18
2022-08-28T04:02:42.695Z,8.35
2022-08-28T04:05:10.639Z,9.60
2022-08-28T04:07:39.408Z,8.93
2022-08-28T04:10:07.644Z,9.45
2022-08-28T04:12:36.388Z,8.07
2022-08-28T04:15:06.423Z,8.60
2022-08-28T04:17:36.272Z,12.95
2022-08-28T04:20:04.440Z,14.70
2022-08-28T04:22:32.323Z,11.18
2022-08-28T04:24:59.775Z,12.73
2022-08-28T04:27:26.971Z,15.85
2022-08-28T04:29:54.136Z,14.73
2022-08-28T04:32:22.661Z,13.93
2022-08-28T04:34:50.426Z,10.80
2022-08-28T04:37:18.390Z,9.80
2022-08-28T04:39:45.510Z,9.10
2022-08-28T04:42:14.267Z,8.90
2022-08-28T04:44:41.703Z,10.63
2022-08-28T04:47:09.016Z,10.73
2022-08-28T04:49:37.520Z,8.43
2022-08-28T04:52:05.149Z,9.32
2022-08-28T04:54:35.693Z,9.38
2022-08-28T04:57:02.961Z,7.65
2022-08-28T04:59:34.176Z,7.70
2022-08-28T05:02:01.485Z,8.00
2022-08-28T05:04:29.039Z,6.72
2022-08-28T05:06:56.255Z,7.60
2022-08-28T05:09:23.430Z,7.13
2022-08-28T05:11:52.825Z,7.28
2022-08-28T05:14:21.161Z,6.72
2022-08-28T05:19:19.589Z,6.97
2022-08-28T05:21:48.524Z,7.72
2022-08-28T05:24:16.178Z,6.63
2022-08-28T05:26:43.725Z,5.10
2022-08-28T05:29:16.237Z,7.32
2022-08-28T05:31:43.691Z,6.18
2022-08-28T05:34:11.331Z,6.20
2022-08-28T05:36:38.908Z,5.80
2022-08-28T05:39:11.726Z,7.00
2022-08-28T05:41:42.623Z,8.07
2022-08-28T05:44:12.946Z,5.97
2022-08-28T05:46:44.111Z,5.68
2022-08-28T05:49:12.821Z,6.82
2022-08-28T05:51:42.176Z,6.78
2022-08-28T05:54:10.635Z,7.10
2022-08-28T05:56:40.208Z,7.63
2022-08-28T05:59:09.418Z,6.72
2022-08-28T06:01:42.591Z,5.57
2022-08-28T06:04:17.774Z,6.63
2022-08-28T06:06:46.178Z,5.40
2022-08-28T06:09:25.339Z,6.90
2022-08-28T06:11:58.896Z,7.50
2022-08-28T06:14:27.082Z,6.65
2022-08-28T06:16:56.569Z,6.65
2022-08-28T06:19:26.682Z,7.15
2022-08-28T06:21:56.733Z,7.43
2022-08-28T06:24:25.287Z,6.28
2022-08-28T06:26:52.504Z,7.30
2022-08-28T06:32:00.320Z,8.27
2022-08-28T06:34:28.871Z,6.80
2022-08-28T06:36:56.188Z,6.47
2022-08-28T06:39:23.716Z,7.40
2022-08-28T06:41:51.055Z,7.13
2022-08-28T06:44:20.691Z,7.10
2022-08-28T06:46:51.939Z,7.93
2022-08-28T06:49:19.830Z,7.38
2022-08-28T06:51:47.080Z,5.72
2022-08-28T06:54:21.838Z,6.45
2022-08-28T06:56:51.150Z,7.07
2022-08-28T06:59:18.934Z,7.63
2022-08-28T07:01:46.322Z,8.00
2022-08-28T07:06:53.014Z,6.30
2022-08-28T07:09:23.520Z,6.97
2022-08-28T07:11:51.117Z,8.18
2022-08-28T07:14:18.405Z,6.85
2022-08-28T07:19:12.984Z,5.40
2022-08-28T07:21:43.791Z,7.85
2022-08-28T07:24:13.997Z,6.93
2022-08-28T07:26:43.095Z,6.38
2022-08-28T07:29:11.730Z,6.78
2022-08-28T07:31:48.471Z,7.72
2022-08-28T07:34:20.036Z,8.00
2022-08-28T07:36:47.854Z,7.75
2022-08-28T07:39:15.584Z,6.90
2022-08-28T07:41:43.230Z,7.20
2022-08-28T07:44:32.156Z,6.57
2022-08-28T07:47:03.456Z,6.30
2022-08-28T07:49:33.067Z,7.25
2022-08-28T07:52:00.833Z,6.00
2022-08-28T07:54:27.979Z,6.15
2022-08-28T07:56:55.128Z,6.20
2022-08-28T07:59:22.317Z,9.02
2022-08-28T08:01:51.604Z,6.70
2022-08-28T08:04:21.352Z,7.55
2022-08-28T08:06:53.410Z,6.50
2022-08-28T08:09:25.521Z,5.55
2022-08-28T08:11:53.080Z,6.50
2022-08-28T08:14:20.240Z,7.18
2022-08-28T08:16:48.894Z,5.63
2022-08-28T08:19:16.832Z,7.05
2022-08-28T08:21:54.875Z,6.95
2022-08-28T08:24:25.508Z,5.85
2022-08-28T08:27:00.058Z,7.40
2022-08-28T08:29:35.056Z,6.68
2022-08-28T08:32:07.327Z,5.60
2022-08-28T08:34:40.644Z,7.88
2022-08-28T08:37:08.765Z,6.47
2022-08-28T08:42:19.889Z,7.60
2022-08-28T08:44:51.354Z,6.63
2022-08-28T08:48:00.210Z,5.65
2022-08-28T08:50:34.739Z,5.13
2022-08-28T08:53:57.440Z,6.65
2022-08-28T08:56:24.615Z,5.72
2022-08-28T08:59:07.348Z,5.32
2022-08-28T09:01:46.230Z,4.75
2022-08-28T09:04:16.066Z,4.80
2022-08-28T09:07:15.161Z,4.63
2022-08-28T09:09:56.989Z,3.30
2022-08-28T09:12:34.600Z,4.75
2022-08-28T09:15:09.218Z,3.83
2022-08-28T09:17:47.174Z,4.18
2022-08-28T09:20:32.909Z,4.38
2022-08-28T09:23:02.074Z,5.18
2022-08-28T09:25:44.332Z,5.25
2022-08-28T09:28:37.354Z,4.53
2022-08-28T09:31:15.283Z,4.43
2022-08-28T09:33:50.662Z,4.28
2022-08-28T09:36:32.706Z,5.45
2022-08-28T09:39:18.147Z,4.32
2022-08-28T09:42:22.012Z,3.83
2022-08-28T09:44:59.816Z,4.97
2022-08-28T09:47:51.681Z,3.85
2022-08-28T09:50:41.799Z,7.25
2022-08-28T09:53:08.824Z,3.72
2022-08-28T09:55:52.988Z,5.15
2022-08-28T09:58:22.753Z,4.80
2022-08-28T10:01:02.312Z,5.35
2022-08-28T10:03:59.201Z,3.60
2022-08-28T10:06:32.443Z,4.57
2022-08-28T10:09:36.729Z,5.00
2022-08-28T10:12:03.917Z,3.75
2022-08-28T10:15:15.366Z,2.67
2022-08-28T10:18:28.825Z,3.58
2022-08-28T10:20:58.635Z,3.15
2022-08-28T10:24:00.340Z,4.10
2022-08-28T10:26:38.331Z,3.70
2022-08-28T10:29:44.696Z,3.90
2022-08-28T10:32:36.993Z,4.53
2022-08-28T10:35:19.135Z,4.38
2022-08-28T10:38:47.262Z,4.30
2022-08-28T10:41:33.191Z,3.58
2022-08-28T10:44:03.340Z,3.55
2022-08-28T10:46:45.787Z,3.88
2022-08-28T10:49:30.919Z,3.45
2022-08-28T10:52:12.776Z,4.10
2022-08-28T10:55:18.433Z,3.47
2022-08-28T10:58:01.975Z,3.70
2022-08-28T11:00:29.631Z,3.63
2022-08-28T11:03:05.820Z,5.00
2022-08-28T11:05:52.454Z,3.47
2022-08-28T11:11:05.743Z,3.92
2022-08-28T11:13:51.642Z,3.75
2022-08-28T11:16:47.151Z,3.70
2022-08-28T11:19:32.959Z,4.70
2022-08-28T11:22:17.365Z,3.70
2022-08-28T11:25:01.743Z,4.63
2022-08-28T11:27:35.339Z,4.15
2022-08-28T11:30:08.322Z,4.25
2022-08-28T11:32:56.268Z,3.67
2022-08-28T11:35:29.480Z,3.50
2022-08-28T11:37:57.971Z,3.42
2022-08-28T11:40:28.029Z,3.55
2022-08-28T11:43:14.006Z,2.88
2022-08-28T11:45:46.677Z,4.28
2022-08-28T11:48:33.274Z,4.53
2022-08-28T11:51:17.674Z,4.30
2022-08-28T11:54:26.789Z,3.60
2022-08-28T11:57:21.800Z,3.60
2022-08-28T12:00:10.888Z,4.00
2022-08-28T12:03:24.866Z,3.80
2022-08-28T12:05:56.317Z,3.92
2022-08-28T12:08:48.245Z,4.25
2022-08-28T12:11:40.287Z,3.13
2022-08-28T12:14:32.770Z,4.38
2022-08-28T12:17:03.073Z,3.88
2022-08-28T12:19:57.979Z,3.75
2022-08-28T12:22:52.976Z,3.35
2022-08-28T12:25:26.395Z,4.50
2022-08-28T12:27:56.085Z,4.40
2022-08-28T12:30:41.600Z,3.35
2022-08-28T12:33:33.454Z,3.38
2022-08-28T12:36:03.734Z,3.33
2022-08-28T12:38:33.279Z,3.85
2022-08-28T12:41:02.195Z,3.88
2022-08-28T12:43:46.607Z,4.65
2022-08-28T12:46:29.269Z,3.63
2022-08-28T12:48:59.920Z,3.90
2022-08-28T12:51:34.706Z,3.28
2022-08-28T12:54:06.461Z,3.28
2022-08-28T12:56:37.170Z,3.70
2022-08-28T12:59:31.828Z,3.10
2022-08-28T13:02:33.104Z,3.42
2022-08-28T13:05:06.017Z,3.58
2022-08-28T13:07:48.245Z,3.15
2022-08-28T13:10:23.441Z,5.05
2022-08-28T13:13:04.694Z,3.65
2022-08-28T13:15:45.599Z,5.88
2022-08-28T13:18:41.514Z,4.30
2022-08-28T13:21:17.469Z,4.32
2022-08-28T13:24:00.723Z,4.25
2022-08-28T13:26:37.080Z,4.35
2022-08-28T13:29:21.388Z,2.95
2022-08-28T13:32:07.672Z,4.55
2022-08-28T13:34:37.609Z,4.10
2022-08-28T13:37:14.811Z,3.55
2022-08-28T13:39:47.401Z,3.80
2022-08-28T13:42:17.296Z,3.77
2022-08-28T13:44:55.336Z,3.55
2022-08-28T13:47:22.818Z,3.53
2022-08-28T13:49:49.912Z,4.68
2022-08-28T13:52:17.231Z,4.23
2022-08-28T13:54:45.439Z,3.17
2022-08-28T13:57:13.711Z,3.95
2022-08-28T14:02:31.360Z,3.17
2022-08-28T14:04:59.713Z,3.72
2022-08-28T14:07:28.675Z,2.80
2022-08-28T14:09:56.627Z,3.30
2022-08-28T14:12:31.339Z,3.85
2022-08-28T14:15:02.095Z,3.33
2022-08-28T14:17:29.361Z,3.38
2022-08-28T14:19:56.938Z,3.28
2022-08-28T14:22:24.036Z,4.20
2022-08-28T14:24:51.634Z,3.67
2022-08-28T14:27:18.838Z,2.95
2022-08-28T14:29:46.051Z,3.93
2022-08-28T14:32:13.183Z,2.90
2022-08-28T14:34:40.720Z,2.60
2022-08-28T14:37:07.816Z,3.08
2022-08-28T14:39:35.170Z,4.13
2022-08-28T14:42:05.025Z,4.03
2022-08-28T14:44:40.115Z,3.65
2022-08-28T14:47:07.375Z,4.27
2022-08-28T14:49:34.512Z,3.30
2022-08-28T14:52:01.724Z,3.45
2022-08-28T14:54:28.909Z,2.53
2022-08-28T14:56:56.481Z,3.10
2022-08-28T14:59:28.043Z,4.32
2022-08-28T15:01:59.398Z,3.60
2022-08-28T15:04:33.956Z,3.30
2022-08-28T15:07:05.799Z,3.10
2022-08-28T15:09:39.736Z,3.88
2022-08-28T15:12:07.555Z,3.45
2022-08-28T15:14:35.707Z,3.05
2022-08-28T15:17:03.488Z,3.03
2022-08-28T15:19:31.001Z,3.42
2022-08-28T15:21:58.638Z,3.30
2022-08-28T15:24:30.766Z,3.30
2022-08-28T15:26:59.019Z,2.97
2022-08-28T15:29:28.533Z,2.85
2022-08-28T15:31:57.312Z,3.42
2022-08-28T15:34:27.725Z,3.20
2022-08-28T15:36:56.948Z,3.88
2022-08-28T15:39:44.873Z,3.78
2022-08-28T15:42:12.752Z,3.63
2022-08-28T15:44:40.002Z,4.32
2022-08-28T15:47:07.758Z,4.00
2022-08-28T15:49:43.686Z,4.82
2022-08-28T15:52:18.517Z,4.57
2022-08-28T15:54:46.666Z,2.80
2022-08-28T15:59:49.841Z,2.83
2022-08-28T16:02:21.343Z,3.20
2022-08-28T16:04:48.764Z,3.10
2022-08-28T16:07:17.365Z,2.70
2022-08-28T16:09:45.747Z,2.55
2022-08-28T16:12:13.223Z,3.17
2022-08-28T16:14:40.474Z,2.67
2022-08-28T16:17:11.068Z,4.10
2022-08-28T16:19:40.217Z,3.05
2022-08-28T16:22:09.917Z,3.42
2022-08-28T16:24:37.531Z,3.40
2022-08-28T16:27:06.399Z,4.55
2022-08-28T16:29:37.085Z,4.25
2022-08-28T16:32:04.976Z,3.83
2022-08-28T16:34:33.093Z,4.47
2022-08-28T16:39:27.738Z,5.30
2022-08-28T16:41:54.925Z,6.43
2022-08-28T16:44:27.241Z,7.43
2022-08-28T16:46:55.412Z,8.05
2022-08-28T16:49:23.760Z,6.63
2022-08-28T16:51:51.059Z,6.38
2022-08-28T16:54:20.199Z,6.78
2022-08-28T16:56:47.734Z,6.90
2022-08-28T16:59:19.948Z,7.53
2022-08-28T17:01:53.720Z,7.60
2022-08-28T17:04:22.357Z,7.70
2022-08-28T17:06:49.703Z,8.88
2022-08-28T17:09:16.824Z,8.40
2022-08-28T17:11:51.724Z,8.68
2022-08-28T17:14:23.250Z,8.88
2022-08-28T17:16:51.197Z,11.45
2022-08-28T17:19:20.180Z,15.80
2022-08-28T17:22:06.095Z,17.67
2022-08-28T17:24:33.317Z,19.92
2022-08-28T17:27:05.168Z,18.67
2022-08-28T17:29:38.136Z,13.95
2022-08-28T17:32:07.204Z,11.55
2022-08-28T17:34:35.383Z,12.93
2022-08-28T17:39:30.446Z,12.45
2022-08-28T17:41:57.694Z,11.68
2022-08-28T17:44:25.394Z,11.27
2022-08-28T17:46:52.798Z,8.80
2022-08-28T17:49:20.109Z,7.32
2022-08-28T17:51:47.422Z,6.70
2022-08-28T17:54:20.804Z,7.53
2022-08-28T17:56:49.172Z,6.60
2022-08-28T17:59:16.585Z,6.63
2022-08-28T18:01:45.817Z,12.50
2022-08-28T18:04:17.984Z,9.43
2022-08-28T18:06:50.974Z,6.80
2022-08-28T18:09:18.342Z,10.70
2022-08-28T18:11:45.517Z,10.93
2022-08-28T18:14:12.810Z,10.63
2022-08-28T18:16:40.198Z,12.15
2022-08-28T18:19:10.743Z,17.83
2022-08-28T18:21:39.697Z,15.85
2022-08-28T18:24:08.233Z,7.05
2022-08-28T18:26:36.103Z,8.63
2022-08-28T18:29:03.729Z,7.20
2022-08-28T18:31:31.357Z,6.75
2022-08-28T18:33:59.207Z,7.43
2022-08-28T18:36:26.689Z,7.75
2022-08-28T18:38:54.016Z,7.03
2022-08-28T18:41:21.716Z,7.40
2022-08-28T18:43:55.715Z,7.55
2022-08-28T18:46:25.135Z,7.43
2022-08-28T18:48:56.093Z,6.95
2022-08-28T18:51:23.503Z,8.80
2022-08-28T18:53:50.980Z,8.88
2022-08-28T18:56:18.374Z,7.77
2022-08-28T18:58:45.660Z,6.90
2022-08-28T19:01:12.969Z,7.32
2022-08-28T19:03:40.141Z,9.90
2022-08-28T19:06:07.577Z,10.15
2022-08-28T19:08:37.126Z,7.82
2022-08-28T19:11:12.724Z,6.60
2022-08-28T19:13:41.172Z,5.72
2022-08-28T19:18:36.077Z,6.30
2022-08-28T19:21:09.991Z,7.05
2022-08-28T19:23:49.864Z,7.50
2022-08-28T19:26:27.267Z,8.20
2022-08-28T19:28:55.166Z,7.40
2022-08-28T19:31:26.671Z,7.13
2022-08-28T19:33:54.716Z,6.32
2022-08-28T19:36:21.965Z,6.50
2022-08-28T19:38:49.557Z,6.82
2022-08-28T19:41:17.165Z,6.53
2022-08-28T19:43:44.866Z,6.27
2022-08-28T19:46:19.591Z,7.63
2022-08-28T19:48:49.723Z,6.20
2022-08-28T19:51:22.895Z,5.90
2022-08-28T19:53:57.324Z,6.15
2022-08-28T19:56:31.798Z,6.97
2022-08-28T19:59:02.532Z,7.40
2022-08-28T20:01:37.602Z,7.10
2022-08-28T20:04:07.866Z,6.40
2022-08-28T20:06:36.120Z,6.10
2022-08-28T20:09:07.356Z,7.53
2022-08-28T20:11:38.350Z,11.20
2022-08-28T20:14:05.972Z,10.73
2022-08-28T20:16:38.100Z,9.87
2022-08-28T20:19:07.242Z,12.05
2022-08-28T20:21:37.925Z,15.35
2022-08-28T20:24:13.379Z,18.38
2022-08-28T20:26:40.858Z,12.90
2022-08-28T20:29:09.657Z,11.57
2022-08-28T20:31:44.833Z,12.25
2022-08-28T20:34:14.523Z,11.80
2022-08-28T20:36:41.786Z,11.00
2022-08-28T20:39:09.538Z,9.98
2022-08-28T20:41:39.068Z,11.18
2022-08-28T20:44:09.081Z,10.23
2022-08-28T20:46:40.785Z,10.90
2022-08-28T20:49:11.050Z,10.93
2022-08-28T20:52:00.327Z,12.88
2022-08-28T20:54:30.647Z,13.85
2022-08-28T20:57:01.859Z,16.42
2022-08-28T20:59:37.174Z,18.10
2022-08-28T21:02:33.368Z,18.40
2022-08-28T21:05:01.265Z,17.27
2022-08-28T21:07:28.681Z,15.52
2022-08-28T21:10:07.148Z,12.45
2022-08-28T21:12:37.316Z,10.70
2022-08-28T21:15:11.915Z,10.63
2022-08-28T21:17:40.670Z,10.68
2022-08-28T21:20:13.637Z,11.35
2022-08-28T21:22:41.479Z,9.70
2022-08-28T21:25:10.689Z,10.40
2022-08-28T21:27:38.591Z,11.45
2022-08-28T21:30:07.976Z,10.70
2022-08-28T21:32:36.092Z,11.55
2022-08-28T21:35:10.294Z,10.07
2022-08-28T21:37:40.567Z,10.25
2022-08-28T21:40:11.952Z,8.85
2022-08-28T21:42:40.043Z,9.65
2022-08-28T21:45:11.873Z,9.32
2022-08-28T21:47:41.506Z,9.77
2022-08-28T21:50:10.137Z,9.15
2022-08-28T21:55:10.702Z,9.30
2022-08-28T21:57:38.262Z,8.35
2022-08-28T22:00:17.020Z,9.38
2022-08-28T22:02:44.681Z,9.40
2022-08-28T22:05:12.525Z,9.43
2022-08-28T22:07:40.032Z,9.70
2022-08-28T22:10:09.052Z,8.13
2022-08-28T22:12:36.255Z,7.60
2022-08-28T22:15:04.753Z,8.88
2022-08-28T22:17:31.928Z,7.68
2022-08-28T22:19:59.033Z,8.02
2022-08-28T22:22:44.682Z,9.50
2022-08-28T22:25:12.036Z,9.07
2022-08-28T22:27:39.132Z,8.98
2022-08-28T22:30:07.459Z,9.90
2022-08-28T22:32:34.678Z,10.60
2022-08-28T22:35:01.838Z,10.07
2022-08-28T22:37:28.951Z,11.57
2022-08-28T22:39:56.852Z,9.18
2022-08-28T22:42:24.244Z,10.55
2022-08-28T22:44:51.348Z,10.70
2022-08-28T22:47:18.991Z,11.40
2022-08-28T22:49:46.609Z,10.63
2022-08-28T22:52:14.838Z,10.95
2022-08-28T22:54:42.774Z,10.57
2022-08-28T22:57:10.212Z,8.88
2022-08-28T22:59:37.362Z,8.32
2022-08-28T23:02:04.559Z,10.85
2022-08-28T23:04:31.739Z,9.93
2022-08-28T23:06:58.902Z,11.70
2022-08-28T23:09:26.923Z,8.93
2022-08-28T23:11:54.323Z,9.82
2022-08-28T23:14:22.233Z,10.77
2022-08-28T23:16:50.053Z,11.30
2022-08-28T23:19:17.702Z,10.18
2022-08-28T23:21:44.740Z,10.82
2022-08-28T23:24:13.868Z,11.50
2022-08-28T23:26:41.494Z,9.40
2022-08-28T23:29:10.061Z,9.93
2022-08-28T23:34:05.429Z,9.55
2022-08-28T23:36:32.788Z,9.25
2022-08-28T23:39:03.976Z,9.20
2022-08-28T23:41:32.869Z,9.27
2022-08-28T23:44:01.058Z,9.25
2022-08-28T23:46:30.436Z,9.10
2022-08-28T23:48:57.783Z,9.52
2022-08-28T23:51:24.965Z,7.53
2022-08-28T23:53:52.447Z,7.78
2022-08-28T23:56:19.588Z,8.07
2022-08-28T23:58:46.676Z,8.55
